Time;durP1;ratioP1;P1;durP2;ratioP2;P2;SDS_P1;SDS_P2;PMS_P1;PMS_P2;Temp;Humidity;BMP_temperature;BMP_pressure;BME280_temperature;BME280_humidity;BME280_pressure;Samples;Min_cycle;Max_cycle;Signal;HPM_P1;HPM_P2
2022/06/03 00:02:24;;;;;;;4.30;1.80;;;;;;;-144.94;49.40;76946.00;5053530;28;20041;-75
2022/06/03 00:05:26;;;;;;;3.50;1.40;;;;;;;-144.94;49.52;76950.13;5053292;28;20044;-76
2022/06/03 00:08:14;;;;;;;3.65;1.92;;;;;;;-144.94;49.83;76966.59;5053281;28;20032;-76
2022/06/03 00:10:54;;;;;;;4.38;1.90;;;;;;;-144.94;50.03;76970.72;5053237;28;20029;-76
2022/06/03 00:13:35;;;;;;;5.88;2.00;;;;;;;-144.94;50.06;76972.75;5053457;28;20111;-76
2022/06/03 00:16:13;;;;;;;3.47;1.58;;;;;;;-144.94;50.19;76981.00;5052844;28;20424;-76
2022/06/03 00:19:12;;;;;;;3.88;1.95;;;;;;;-144.94;50.09;76970.72;5035245;28;20025;-78
2022/06/03 00:22:05;;;;;;;5.30;1.85;;;;;;;-144.94;50.15;76974.81;5053161;28;20116;-77
2022/06/03 00:24:43;;;;;;;5.90;1.98;;;;;;;-144.94;50.31;76981.00;5051944;28;20044;-77
2022/06/03 00:27:35;;;;;;;5.35;2.08;;;;;;;-144.94;50.59;76989.25;5052898;28;20039;-77
2022/06/03 00:30:10;;;;;;;7.85;2.10;;;;;;;-144.94;50.49;76991.28;5052877;28;20371;-77
2022/06/03 00:33:21;;;;;;;3.22;1.90;;;;;;;-144.94;50.63;76989.25;5052645;28;20144;-77
2022/06/03 00:36:21;;;;;;;3.75;1.98;;;;;;;-144.94;50.92;76999.53;5052888;28;20051;-77
2022/06/03 00:39:05;;;;;;;4.25;1.70;;;;;;;-144.94;51.13;77005.72;5052769;28;20476;-77
2022/06/03 00:42:17;;;;;;;3.53;1.63;;;;;;;-144.94;51.01;76987.19;5052453;28;20033;-77
2022/06/03 00:45:00;;;;;;;6.57;2.63;;;;;;;-144.94;51.25;77007.78;5052352;28;20029;-77
2022/06/03 00:47:31;;;;;;;3.90;1.50;;;;;;;-144.94;51.42;77009.81;5052667;28;20037;-77
2022/06/03 00:50:21;;;;;;;3.40;1.50;;;;;;;-144.94;51.53;77016.00;5052391;28;20132;-77
2022/06/03 00:53:01;;;;;;;3.97;1.83;;;;;;;-144.94;51.85;77030.41;5052634;28;20025;-77
2022/06/03 00:55:48;;;;;;;5.63;1.67;;;;;;;-144.94;52.04;77028.34;5052560;28;20323;-77
2022/06/03 00:58:42;;;;;;;4.20;1.75;;;;;;;-144.94;52.12;77034.53;5052640;28;20413;-77
2022/06/03 01:01:18;;;;;;;10.05;2.22;;;;;;;-144.94;52.05;77032.47;5052554;28;20025;-77
2022/06/03 01:04:15;;;;;;;4.03;1.75;;;;;;;-144.94;52.43;77036.59;5052293;28;20056;-77
2022/06/03 01:07:04;;;;;;;5.03;1.80;;;;;;;-144.94;52.16;77036.59;5052260;28;20032;-77
2022/06/03 01:09:45;;;;;;;5.93;1.83;;;;;;;-144.94;52.30;77044.84;5052117;28;20025;-77
2022/06/03 01:12:27;;;;;;;3.95;1.70;;;;;;;-144.94;52.56;77046.88;5052231;28;20032;-77
2022/06/03 01:15:14;;;;;;;3.72;1.67;;;;;;;-144.94;53.05;77063.38;5052690;28;20037;-77
2022/06/03 01:18:00;;;;;;;3.95;1.83;;;;;;;-144.94;52.94;77061.31;5052030;28;20087;-76
2022/06/03 01:20:57;;;;;;;3.78;1.80;;;;;;;-144.94;53.17;77073.66;5052058;28;20083;-77
2022/06/03 01:24:00;;;;;;;4.47;1.83;;;;;;;-144.94;53.35;77067.47;5052070;28;20057;-77
2022/06/03 01:26:46;;;;;;;4.70;1.77;;;;;;;-144.94;53.81;77073.66;5052295;28;20037;-76
2022/06/03 01:29:44;;;;;;;4.03;1.77;;;;;;;-144.94;53.46;77073.66;5052257;28;20419;-76
2022/06/03 01:32:34;;;;;;;3.70;1.63;;;;;;;-144.94;53.63;77061.31;5051369;28;20052;-77
2022/06/03 01:35:26;;;;;;;3.90;1.70;;;;;;;-144.94;54.00;77075.72;5051671;28;20116;-77
2022/06/03 01:38:19;;;;;;;5.35;2.00;;;;;;;-144.94;54.21;77086.00;5055502;28;20029;-76
2022/06/03 01:41:21;;;;;;;3.42;1.67;;;;;;;-144.94;54.14;77083.94;5055659;28;20025;-77
2022/06/03 01:44:02;;;;;;;5.13;1.75;;;;;;;-144.94;54.16;77094.25;5055732;28;20029;-76
2022/06/03 01:46:29;;;;;;;3.50;1.75;;;;;;;-144.94;54.33;77094.25;5055524;28;20033;-76
2022/06/03 01:48:58;;;;;;;3.63;1.63;;;;;;;-144.94;54.59;77098.38;5056211;28;20056;-77
2022/06/03 01:51:52;;;;;;;3.75;1.63;;;;;;;-144.94;54.71;77094.25;5055594;28;20051;-77
2022/06/03 01:54:55;;;;;;;4.25;2.15;;;;;;;-144.94;54.70;77104.53;5055557;28;20062;-77
2022/06/03 01:57:43;;;;;;;4.28;1.80;;;;;;;-144.94;54.68;77110.72;5055807;28;20409;-77
2022/06/03 02:00:27;;;;;;;4.25;2.03;;;;;;;-144.94;54.83;77110.72;5055449;28;20021;-77
2022/06/03 02:03:13;;;;;;;4.30;1.77;;;;;;;-144.94;54.78;77114.84;5055809;28;20025;-77
2022/06/03 02:06:15;;;;;;;5.45;1.98;;;;;;;-144.94;55.15;77110.72;5055436;28;20035;-77
2022/06/03 02:09:09;;;;;;;4.70;2.13;;;;;;;-144.94;55.38;77118.97;5056022;28;20485;-77
2022/06/03 02:12:00;;;;;;;4.20;1.65;;;;;;;-144.94;55.55;77125.13;5037728;28;20375;-78
2022/06/03 02:14:41;;;;;;;3.83;1.88;;;;;;;-144.94;55.40;77118.97;5055175;28;20029;-77
2022/06/03 02:17:30;;;;;;;4.50;1.98;;;;;;;-144.94;55.79;77123.06;5055202;28;20040;-77
2022/06/03 02:20:20;;;;;;;5.85;2.85;;;;;;;-144.94;55.46;77121.00;5055246;28;20039;-77
2022/06/03 02:23:00;;;;;;;3.92;1.75;;;;;;;-144.94;55.69;77125.13;5054841;28;20037;-77
2022/06/03 02:25:28;;;;;;;4.32;2.03;;;;;;;-144.94;55.66;77123.06;5055262;28;20059;-77
2022/06/03 02:28:16;;;;;;;3.65;1.63;;;;;;;-144.94;55.50;77116.91;5055202;28;20455;-77
2022/06/03 02:31:26;;;;;;;4.60;1.63;;;;;;;-144.94;55.93;77139.53;5054937;28;20076;-77
2022/06/03 02:34:23;;;;;;;5.43;1.90;;;;;;;-144.94;56.37;77143.66;5055154;28;20041;-77
2022/06/03 02:36:49;;;;;;;;;;;;;;;-144.94;56.10;77149.84;5031768;28;20037;-77
2022/06/03 02:39:45;;;;;;;4.37;1.90;;;;;;;-144.94;56.53;77162.19;5055004;28;20452;-77
2022/06/03 02:42:34;;;;;;;4.60;1.90;;;;;;;-144.94;56.50;77156.03;5055014;28;20021;-77
2022/06/03 02:45:18;;;;;;;4.40;2.25;;;;;;;-144.94;56.67;77151.91;5054906;28;20064;-77
2022/06/03 02:48:20;;;;;;;4.68;2.35;;;;;;;-144.94;57.07;77156.03;5054501;28;20062;-77
2022/06/03 02:51:09;;;;;;;5.72;2.30;;;;;;;-144.94;57.31;77168.38;5054371;28;20572;-77
2022/06/03 02:54:10;;;;;;;5.78;2.30;;;;;;;-144.94;57.12;77176.59;5054758;28;20403;-77
2022/06/03 02:57:03;;;;;;;4.65;2.20;;;;;;;-144.94;57.51;77186.91;5054792;28;20036;-77
2022/06/03 02:59:46;;;;;;;4.78;2.58;;;;;;;-144.94;57.60;77188.97;5054441;28;20033;-77
2022/06/03 03:02:46;;;;;;;5.00;2.20;;;;;;;-144.94;57.52;77193.09;5054365;28;20036;-77
2022/06/03 03:05:36;;;;;;;5.22;2.38;;;;;;;-144.94;58.17;77201.31;5025855;28;20065;-77
2022/06/03 03:08:20;;;;;;;5.07;2.30;;;;;;;-144.94;57.95;77197.19;5054675;28;20037;-77
2022/06/03 03:11:12;;;;;;;4.80;2.30;;;;;;;-144.94;57.87;77195.13;5054559;28;20514;-76
2022/06/03 03:14:06;;;;;;;5.47;2.50;;;;;;;-144.94;58.29;77213.66;5054520;28;20120;-77
2022/06/03 03:16:45;;;;;;;5.93;2.50;;;;;;;-144.94;58.68;77219.84;5054393;28;20025;-76
2022/06/03 03:19:53;;;;;;;5.57;2.35;;;;;;;-144.94;58.99;77234.25;5054129;28;20061;-77
2022/06/03 03:22:49;;;;;;;4.38;1.85;;;;;;;-144.94;59.39;77230.16;5054343;28;20033;-77
2022/06/03 03:25:52;;;;;;;6.15;2.30;;;;;;;-144.94;59.86;77244.56;5014502;28;20046;-77
2022/06/03 03:28:29;;;;;;;4.13;2.17;;;;;;;-144.94;60.43;77263.09;5014327;28;20038;-77
2022/06/03 03:31:09;;;;;;;5.95;2.38;;;;;;;-144.94;60.60;77254.84;5014018;28;20164;-76
2022/06/03 03:33:53;;;;;;;6.65;2.40;;;;;;;-144.94;60.16;77263.09;5013123;28;20030;-76
2022/06/03 03:36:37;;;;;;;5.95;3.13;;;;;;;-144.94;60.32;77265.16;5012948;28;20042;-76
2022/06/03 03:39:24;;;;;;;7.00;2.83;;;;;;;-144.94;60.04;77265.16;5014430;28;20117;-76
2022/06/03 03:42:24;;;;;;;5.50;2.47;;;;;;;-144.94;60.26;77256.91;5013976;28;20079;-76
2022/06/03 03:45:08;;;;;;;4.68;2.25;;;;;;;-144.94;60.02;77238.38;5014084;28;20081;-77
2022/06/03 03:47:56;;;;;;;4.93;2.35;;;;;;;-144.94;59.27;77217.78;5013772;28;20034;-77
2022/06/03 03:51:02;;;;;;;4.80;2.50;;;;;;;-144.94;58.86;77209.56;5010615;28;20041;-76
2022/06/03 03:54:14;;;;;;;5.47;2.50;;;;;;;-144.94;59.16;77221.91;5014083;28;20048;-76
2022/06/03 03:56:57;;;;;;;5.70;2.80;;;;;;;-144.94;59.95;77246.63;5012455;28;20371;-77
2022/06/03 03:59:41;;;;;;;6.45;2.35;;;;;;;-144.94;60.25;77246.63;5012902;28;20026;-77
2022/06/03 04:02:27;;;;;;;5.00;2.63;;;;;;;-144.94;59.32;77226.03;5013683;28;20042;-78
2022/06/03 04:05:11;;;;;;;5.90;2.60;;;;;;;-144.94;59.37;77217.78;5013884;28;20037;-76
2022/06/03 04:08:18;;;;;;;5.93;2.88;;;;;;;-144.94;59.01;77217.78;5013586;28;20042;-76
2022/06/03 04:11:17;;;;;;;6.18;2.33;;;;;;;-144.94;58.51;77203.38;5010386;28;20468;-77
2022/06/03 04:14:02;;;;;;;5.47;2.50;;;;;;;-144.94;58.54;77209.56;5013553;28;20026;-77
2022/06/03 04:16:51;;;;;;;5.90;2.72;;;;;;;-144.94;59.05;77215.72;5013510;28;20088;-77
2022/06/03 04:19:29;;;;;;;5.28;2.28;;;;;;;-144.94;58.85;77203.38;5013499;28;20025;-77
2022/06/03 04:22:12;;;;;;;5.85;2.60;;;;;;;-144.94;58.37;77195.13;5013357;28;20034;-76
2022/06/03 04:24:40;;;;;;;4.70;2.05;;;;;;;-144.94;58.21;77191.03;5049133;28;20458;-76
2022/06/03 04:27:50;;;;;;;6.05;2.63;;;;;;;-144.94;58.26;77182.78;5035019;28;20419;-76
2022/06/03 04:30:51;;;;;;;6.35;2.28;;;;;;;-144.94;58.05;77170.44;5052743;28;20025;-77
2022/06/03 04:33:54;;;;;;;5.28;2.45;;;;;;;-144.94;57.53;77160.13;5053154;28;20037;-76
2022/06/03 04:36:43;;;;;;;7.63;3.10;;;;;;;-144.94;57.92;77158.06;5052806;28;20037;-76
2022/06/03 04:39:27;;;;;;;5.60;2.65;;;;;;;-144.94;57.59;77168.38;5052687;28;20025;-76
2022/06/03 04:42:32;;;;;;;4.97;2.58;;;;;;;-144.94;57.52;77172.50;5052393;28;20086;-75
2022/06/03 04:45:34;;;;;;;5.65;2.63;;;;;;;-144.94;57.25;77151.91;5052294;28;20474;-76
2022/06/03 04:48:19;;;;;;;7.00;2.55;;;;;;;-144.94;57.20;77131.31;5052060;28;20063;-75
2022/06/03 04:51:36;;;;;;;5.13;2.20;;;;;;;-144.94;56.88;77125.13;5052054;28;20037;-75
2022/06/03 04:54:37;;;;;;;5.85;3.17;;;;;;;-144.94;56.78;77118.97;5018629;28;20040;-75
2022/06/03 04:57:37;;;;;;;5.85;2.42;;;;;;;-144.94;56.38;77104.53;5052300;28;20462;-77
2022/06/03 05:00:34;;;;;;;6.32;3.03;;;;;;;-144.94;56.18;77081.91;5044226;28;20045;-75
2022/06/03 05:03:32;;;;;;;5.20;2.50;;;;;;;-144.94;55.91;77061.31;5052587;28;20033;-76
2022/06/03 05:06:16;;;;;;;5.38;2.50;;;;;;;-144.94;55.58;77063.38;5052452;28;20446;-75
2022/06/03 05:09:23;;;;;;;4.80;2.00;;;;;;;-144.94;55.67;77065.41;5052131;28;20037;-75
2022/06/03 05:12:12;;;;;;;4.95;2.20;;;;;;;-144.94;55.62;77065.41;5038130;28;20029;-76
2022/06/03 05:15:06;;;;;;;5.57;2.75;;;;;;;-144.94;55.14;77040.72;5056137;28;20301;-74
2022/06/03 05:17:49;;;;;;;4.35;2.05;;;;;;;-144.94;55.46;77044.84;5056225;28;20112;-75
2022/06/03 05:20:31;;;;;;;4.65;2.20;;;;;;;-144.94;54.90;77038.66;5038242;28;20029;-76
2022/06/03 05:23:22;;;;;;;4.82;2.40;;;;;;;-144.94;54.49;77018.06;5055674;28;20132;-75
2022/06/03 05:26:10;;;;;;;4.40;2.10;;;;;;;-144.94;54.72;77009.81;5037958;28;20478;-74
2022/06/03 05:28:51;;;;;;;4.80;2.53;;;;;;;-144.94;54.35;77001.59;5055933;28;20053;-75
2022/06/03 05:31:22;;;;;;;5.30;2.80;;;;;;;-144.94;54.19;77001.59;5055599;28;20033;-76
2022/06/03 05:34:17;;;;;;;5.10;3.10;;;;;;;-144.94;54.13;77007.78;5055721;28;20060;-75
2022/06/03 05:37:01;;;;;;;8.85;2.63;;;;;;;-144.94;54.44;76989.25;5055502;28;20033;-76
2022/06/03 05:40:00;;;;;;;4.82;2.30;;;;;;;-144.94;53.98;76964.53;5055341;28;20033;-76
2022/06/03 05:42:38;;;;;;;4.22;1.98;;;;;;;-144.94;53.39;76962.47;5055808;28;20028;-75
2022/06/03 05:45:22;;;;;;;3.80;1.73;;;;;;;-144.94;53.49;76954.22;5055103;28;20033;-77
2022/06/03 05:48:06;;;;;;;4.82;2.10;;;;;;;-144.94;52.91;76921.28;5055654;28;20029;-77
2022/06/03 05:51:00;;;;;;;3.97;2.15;;;;;;;-144.94;52.83;76904.81;5055385;28;20033;-78
2022/06/03 05:53:49;;;;;;;5.03;2.08;;;;;;;-144.94;52.11;76867.75;5055543;28;20025;-78
2022/06/03 05:56:34;;;;;;;3.78;1.92;;;;;;;-144.94;52.28;76867.75;5055567;28;20048;-77
2022/06/03 05:59:17;;;;;;;7.35;3.05;;;;;;;-144.94;52.03;76857.47;5055497;28;20039;-76
2022/06/03 06:02:14;;;;;;;4.43;2.05;;;;;;;-144.94;51.74;76843.06;5055417;28;20029;-77
2022/06/03 06:04:52;;;;;;;3.45;1.60;;;;;;;-144.94;51.26;76820.41;5055202;28;20475;-77
2022/06/03 06:07:31;;;;;;;10.00;2.10;;;;;;;-144.94;50.85;76824.53;5055280;28;20464;-78
2022/06/03 06:10:07;;;;;;;5.32;1.85;;;;;;;-144.94;50.39;76793.63;5055479;28;20033;-77
2022/06/03 06:12:47;;;;;;;5.75;2.17;;;;;;;-144.94;50.33;76785.41;5055502;28;20043;-78
2022/06/03 06:15:37;;;;;;;6.93;2.35;;;;;;;-144.94;50.18;76781.28;5054971;28;20056;-77
2022/06/03 06:18:19;;;;;;;3.33;1.73;;;;;;;-144.94;49.99;76775.13;5037248;28;20040;-78
2022/06/03 06:21:09;;;;;;;5.43;1.65;;;;;;;-144.94;49.94;76750.41;5054943;28;20387;-78
2022/06/03 06:23:45;;;;;;;3.97;1.50;;;;;;;-144.94;49.58;76707.16;5054814;28;20120;-77
2022/06/03 06:26:31;;;;;;;3.70;1.50;;;;;;;-144.94;48.97;76682.47;5037193;28;20025;-78
2022/06/03 06:29:35;;;;;;;3.53;1.60;;;;;;;-144.94;47.46;76585.69;5054998;28;20036;-77
2022/06/03 06:32:36;;;;;;;3.50;1.35;;;;;;;-144.94;45.58;76472.47;5055061;28;20025;-78
2022/06/03 06:35:39;;;;;;;5.80;1.33;;;;;;;-144.94;44.42;76398.34;5055389;28;20116;-78
2022/06/03 06:38:30;;;;;;;3.83;1.55;;;;;;;-144.94;43.26;76324.25;5055437;28;20111;-78
2022/06/03 06:41:35;;;;;;;4.43;1.42;;;;;;;-144.94;42.67;76264.53;5055372;28;20025;-80
2022/06/03 06:44:37;;;;;;;3.38;1.20;;;;;;;-144.94;41.96;76241.91;5052528;28;20125;-80
2022/06/03 06:47:30;;;;;;;3.63;1.63;;;;;;;-144.94;42.48;76227.50;5055150;28;20033;-80
2022/06/03 06:50:26;;;;;;;3.25;1.50;;;;;;;-144.94;41.36;76239.84;5055164;28;20045;-80
2022/06/03 06:53:17;;;;;;;3.35;1.40;;;;;;;-144.94;41.41;76252.19;5054917;28;20104;-81
2022/06/03 06:56:11;;;;;;;3.60;1.52;;;;;;;-144.94;41.71;76289.25;5054687;28;20033;-80
2022/06/03 06:58:50;;;;;;;2.85;1.23;;;;;;;-144.94;40.81;76215.13;5054624;28;20044;-80
2022/06/03 07:01:26;;;;;;;2.63;1.23;;;;;;;-144.94;40.73;76246.00;5054447;28;20379;-82
2022/06/03 07:04:00;;;;;;;3.38;1.50;;;;;;;-144.94;41.03;76270.72;5054850;28;20103;-80
2022/06/03 07:06:25;;;;;;;3.70;1.20;;;;;;;-144.94;40.20;76198.66;5054314;28;20430;-79
2022/06/03 07:09:23;;;;;;;2.45;1.13;;;;;;;-144.94;40.94;76237.78;5054583;28;20024;-81
2022/06/03 07:11:58;;;;;;;2.58;1.13;;;;;;;-144.94;40.82;76252.19;5054769;28;20100;-84
2022/06/03 07:14:39;;;;;;;4.90;1.50;;;;;;;-144.94;41.62;76270.72;5054665;28;20115;-81
2022/06/03 07:20:19;;;;;;;3.72;1.27;;;;;;;-144.94;41.75;76297.47;5054774;28;20032;-81
2022/06/03 07:22:56;;;;;;;3.08;1.15;;;;;;;-144.94;41.66;76268.66;5054451;28;20060;-80
2022/06/03 07:25:31;;;;;;;4.55;1.65;;;;;;;-144.94;41.75;76262.47;5054618;28;20033;-81
2022/06/03 07:28:00;;;;;;;3.10;1.43;;;;;;;-144.94;41.67;76231.59;5054044;28;20032;-80
2022/06/03 07:30:41;;;;;;;3.42;1.45;;;;;;;-144.94;41.05;76215.13;5035830;28;20280;-80
2022/06/03 07:33:14;;;;;;;3.33;1.27;;;;;;;-144.94;41.01;76211.03;5054509;28;20036;-80
2022/06/03 07:35:55;;;;;;;3.28;1.48;;;;;;;-144.94;41.53;76246.00;5054102;28;20104;-77
2022/06/03 07:38:33;;;;;;;4.25;1.40;;;;;;;-144.94;41.51;76276.91;5053969;28;20032;-78
2022/06/03 07:41:04;;;;;;;3.35;1.50;;;;;;;-144.94;41.33;76237.78;5054312;28;20467;-79
2022/06/03 07:43:36;;;;;;;3.78;1.60;;;;;;;-144.94;41.38;76229.53;5054147;28;20037;-80
2022/06/03 07:46:16;;;;;;;4.85;1.58;;;;;;;-144.94;41.43;76202.78;5053764;28;20033;-80
2022/06/03 07:48:41;;;;;;;6.00;2.30;;;;;;;-144.94;41.18;76165.72;5035873;28;20029;-80
2022/06/03 07:51:09;;;;;;;;;;;;;;;-144.94;40.45;76130.72;5054023;28;20060;-80
2022/06/03 07:53:34;;;;;;;3.30;1.42;;;;;;;-144.94;40.51;76118.38;5053357;28;19915;-80
2022/06/03 07:56:00;;;;;;;4.50;1.47;;;;;;;-144.94;40.30;76116.31;5053475;28;20029;-80
2022/06/03 07:58:29;;;;;;;;;;;;;;;-144.94;40.26;76101.91;5054764;28;20310;-82
2022/06/03 08:00:55;;;;;;;3.47;1.67;;;;;;;-144.94;40.07;76132.78;5035763;28;19909;-79
2022/06/03 08:03:26;;;;;;;4.72;1.60;;;;;;;-144.94;41.10;76165.72;5053634;28;20037;-82
2022/06/03 08:05:57;;;;;;;3.45;1.42;;;;;;;-144.94;40.76;76138.97;5035965;28;20025;-82
2022/06/03 08:11:25;;;;;;;3.40;1.35;;;;;;;-144.94;40.14;76083.38;5053855;28;20168;-81
2022/06/03 08:13:53;;;;;;;6.40;2.40;;;;;;;-144.94;40.36;76093.69;5054312;28;20115;-82
2022/06/03 08:16:34;;;;;;;3.58;1.42;;;;;;;-144.94;40.14;76083.38;5036145;28;20206;-81
2022/06/03 08:19:14;;;;;;;3.70;1.48;;;;;;;-144.94;40.01;76066.91;5053988;28;20021;-81
2022/06/03 08:21:46;;;;;;;2.55;1.10;;;;;;;-144.94;40.27;76054.56;5036170;28;20029;-82
2022/06/03 08:24:19;;;;;;;4.88;1.65;;;;;;;-144.94;39.71;76036.03;5035848;28;20080;-82
2022/06/03 08:26:49;;;;;;;3.97;1.38;;;;;;;-144.94;39.90;76013.41;5053529;28;20029;-82
2022/06/03 08:29:26;;;;;;;3.80;1.10;;;;;;;-144.94;39.88;76011.34;5036407;28;20025;-82
2022/06/03 08:31:52;;;;;;;;;;;;;;;-144.94;39.63;76027.81;5054095;28;20028;-82
2022/06/03 08:34:24;;;;;;;2.92;1.08;;;;;;;-144.94;38.73;75992.81;5052888;28;20007;-82
2022/06/03 08:36:52;;;;;;;2.88;1.20;;;;;;;-144.94;39.04;75984.59;5035268;28;20140;-82
2022/06/03 08:39:21;;;;;;;2.90;1.13;;;;;;;-144.94;39.09;75941.34;5035204;28;20029;-82
2022/06/03 08:42:21;;;;;;;3.97;1.30;;;;;;;-144.94;38.35;75939.28;5053582;28;20091;-83
2022/06/03 08:44:58;;;;;;;2.53;1.00;;;;;;;-144.94;38.15;75937.25;5052576;28;20059;-83
2022/06/03 08:47:37;;;;;;;2.28;1.08;;;;;;;-144.94;38.00;75951.66;5052995;28;20379;-82
2022/06/03 08:50:10;;;;;;;2.25;1.10;;;;;;;-144.94;38.25;75949.59;5035131;28;20053;-81
2022/06/03 08:52:53;;;;;;;2.92;1.20;;;;;;;-144.94;38.08;75916.66;5052576;28;20053;-78
2022/06/03 08:56:03;;;;;;;3.00;1.13;;;;;;;-144.94;37.43;75910.47;5053174;28;20044;-81
2022/06/03 08:58:38;;;;;;;3.00;1.15;;;;;;;-144.94;37.57;75904.31;5053083;28;20025;-80
2022/06/03 09:01:25;;;;;;;2.20;0.90;;;;;;;-144.94;37.47;75881.66;5052803;28;20526;-82
2022/06/03 09:03:50;;;;;;;2.53;1.00;;;;;;;-144.94;37.25;75879.59;5053046;28;20040;-79
2022/06/03 09:06:37;;;;;;;2.60;1.10;;;;;;;-144.94;36.79;75861.06;5052216;28;20040;-81
2022/06/03 09:09:12;;;;;;;2.42;1.02;;;;;;;-144.94;37.10;75859.03;5053152;28;20057;-83
2022/06/03 09:11:45;;;;;;;3.05;1.15;;;;;;;-144.94;35.78;75817.84;5052692;28;20032;-79
2022/06/03 09:14:18;;;;;;;2.50;1.00;;;;;;;-144.94;36.22;75826.09;5052632;28;20134;-82
2022/06/03 09:16:47;;;;;;;2.63;0.90;;;;;;;-144.94;36.55;75828.16;5052488;28;20098;-81
2022/06/03 09:19:32;;;;;;;2.30;1.13;;;;;;;-144.94;36.40;75842.56;5052593;28;20127;-80
2022/06/03 09:22:06;;;;;;;2.67;0.90;;;;;;;-144.94;36.65;75830.19;5034723;28;20525;-82
2022/06/03 09:24:33;;;;;;;2.20;1.05;;;;;;;-144.94;36.17;75813.72;5034332;28;20148;-82
2022/06/03 09:27:02;;;;;;;1.92;0.98;;;;;;;-144.94;35.57;75821.97;5052368;28;20025;-80
2022/06/03 09:29:28;;;;;;;2.88;1.10;;;;;;;-144.94;35.33;75817.84;5052512;28;20041;-82
2022/06/03 09:32:01;;;;;;;2.40;0.90;;;;;;;-144.94;35.25;75782.84;5052440;28;20352;-82
2022/06/03 09:34:41;;;;;;;1.80;0.85;;;;;;;-144.94;35.19;75786.97;5052774;28;20053;-82
2022/06/03 09:37:08;;;;;;;1.92;0.90;;;;;;;-144.94;35.02;75836.38;5052335;28;20027;-80
2022/06/03 09:39:34;;;;;;;2.38;1.10;;;;;;;-144.94;35.66;75797.25;5052277;28;20033;-82
2022/06/03 09:42:00;;;;;;;3.25;0.80;;;;;;;-144.94;35.36;75797.25;5052643;28;20425;-81
2022/06/03 09:44:27;;;;;;;2.85;1.00;;;;;;;-144.94;34.62;75723.16;5052437;28;20147;-81
2022/06/03 09:47:00;;;;;;;2.50;0.98;;;;;;;-144.94;33.36;75741.69;5052507;28;20021;-79
2022/06/03 09:49:27;;;;;;;2.00;0.80;;;;;;;-144.94;33.44;75789.03;5052089;28;20159;-83
2022/06/03 09:51:56;;;;;;;2.35;1.02;;;;;;;-144.94;33.80;75766.38;5052295;28;20032;-81
2022/06/03 09:54:31;;;;;;;2.88;0.88;;;;;;;-144.94;34.21;75776.69;5052421;28;20059;-79
2022/06/03 09:57:05;;;;;;;3.25;0.90;;;;;;;-144.94;35.45;75786.97;5052929;28;20033;-78
2022/06/03 09:59:33;;;;;;;2.25;1.00;;;;;;;-144.94;35.56;75791.09;5055594;28;20040;-82
2022/06/03 10:01:58;;;;;;;3.25;1.10;;;;;;;-144.94;35.35;75760.22;5055437;28;20389;-79
2022/06/03 10:04:24;;;;;;;1.88;0.85;;;;;;;-144.94;35.47;75741.69;5055419;28;20025;-80
2022/06/03 10:06:50;;;;;;;2.38;1.00;;;;;;;-144.94;34.95;75706.69;5055619;28;20060;-79
2022/06/03 10:17:36;;;;;;;2.80;1.00;;;;;;;-144.94;33.87;75665.53;5055489;28;20047;-79
2022/06/03 10:20:03;;;;;;;2.50;0.90;;;;;;;-144.94;33.42;75644.94;5055501;28;20029;-79
2022/06/03 10:22:29;;;;;;;2.50;1.00;;;;;;;-144.94;34.31;75690.22;5054986;28;20456;-80
2022/06/03 10:24:56;;;;;;;5.05;1.10;;;;;;;-144.94;33.88;75684.06;5055262;28;20032;-77
2022/06/03 10:27:21;;;;;;;2.80;1.00;;;;;;;-144.94;34.13;75684.06;5055135;28;20031;-77
2022/06/03 10:29:49;;;;;;;2.78;0.98;;;;;;;-144.94;33.99;75669.66;5037278;28;20033;-79
2022/06/03 10:32:18;;;;;;;2.78;1.17;;;;;;;-144.94;33.32;75614.06;5054905;28;20087;-78
2022/06/03 10:34:44;;;;;;;3.28;0.90;;;;;;;-144.94;32.75;75630.53;5054940;28;20083;-77
2022/06/03 10:37:21;;;;;;;1.60;0.70;;;;;;;-144.94;32.95;75682.00;5054676;28;20037;-77
2022/06/03 10:39:47;;;;;;;4.07;1.52;;;;;;;-144.94;33.06;75667.59;5054929;28;20045;-78
2022/06/03 10:42:15;;;;;;;2.85;0.90;;;;;;;-144.94;33.20;75669.66;5037106;28;20032;-78
2022/06/03 10:44:44;;;;;;;2.20;1.00;;;;;;;-144.94;32.37;75655.25;5054714;28;20039;-79
2022/06/03 10:47:19;;;;;;;2.45;0.90;;;;;;;-144.94;32.13;75675.81;5054351;28;20033;-79
2022/06/03 10:49:56;;;;;;;2.22;1.00;;;;;;;-144.94;32.47;75630.53;5054929;28;20029;-79
2022/06/03 11:01:20;;;;;;;2.53;1.17;;;;;;;-144.94;31.75;75554.38;5054776;28;20126;-79
2022/06/03 11:03:49;;;;;;;2.25;0.90;;;;;;;-144.94;31.89;75558.50;5054577;28;20025;-79
2022/06/03 11:06:18;;;;;;;2.47;1.00;;;;;;;-144.94;31.95;75570.84;5054919;28;20037;-78
2022/06/03 11:08:50;;;;;;;3.53;1.60;;;;;;;-144.94;32.13;75587.31;5036518;28;20032;-78
2022/06/03 11:11:31;;;;;;;3.67;1.48;;;;;;;-144.94;32.87;75605.84;5054629;28;20037;-79
2022/06/03 11:13:57;;;;;;;1.90;0.80;;;;;;;-144.94;32.59;75603.78;5054340;28;20112;-78
2022/06/03 11:16:25;;;;;;;2.13;1.00;;;;;;;-144.94;31.49;75589.38;5054155;28;20111;-79
2022/06/03 11:18:50;;;;;;;1.80;0.88;;;;;;;-144.94;31.90;75550.28;5036611;28;20481;-79
2022/06/03 11:21:28;;;;;;;1.83;0.80;;;;;;;-144.94;32.18;75544.09;5054521;28;20037;-79
2022/06/03 11:23:56;;;;;;;2.22;0.90;;;;;;;-144.94;32.24;75546.16;5054133;28;20383;-79
2022/06/03 11:26:31;;;;;;;5.07;1.15;;;;;;;-144.94;32.38;75517.34;5054178;28;20120;-79
2022/06/03 11:29:15;;;;;;;2.03;0.98;;;;;;;-144.94;32.00;75513.22;5053912;28;20433;-79
2022/06/03 11:31:43;;;;;;;3.88;1.45;;;;;;;-144.94;31.95;75517.34;5036115;28;20047;-78
2022/06/03 11:34:18;;;;;;;1.73;0.85;;;;;;;-144.94;31.88;75523.50;5054150;28;20112;-78
2022/06/03 11:36:54;;;;;;;2.00;0.90;;;;;;;-144.94;32.27;75535.88;5054102;28;20468;-78
2022/06/03 11:39:33;;;;;;;2.17;0.82;;;;;;;-144.94;32.27;75552.34;5053862;28;20125;-78
2022/06/03 11:42:16;;;;;;;1.80;1.02;;;;;;;-144.94;31.96;75480.28;5053745;28;20028;-78
2022/06/03 11:44:49;;;;;;;1.70;0.90;;;;;;;-144.94;31.70;75480.28;5054132;28;20318;-79
2022/06/03 11:47:23;;;;;;;2.30;1.02;;;;;;;-144.94;31.96;75502.94;5053690;28;20112;-78
2022/06/03 11:49:49;;;;;;;2.30;0.90;;;;;;;-144.94;31.66;75502.94;5053593;28;20109;-78
2022/06/03 11:52:16;;;;;;;1.25;0.73;;;;;;;-144.94;32.11;75505.00;5054259;28;20063;-79
2022/06/03 11:54:41;;;;;;;2.50;1.10;;;;;;;-144.94;32.04;75480.28;5053640;28;20498;-78
2022/06/03 11:57:08;;;;;;;2.22;1.20;;;;;;;-144.94;32.01;75486.47;5053548;28;20029;-78
2022/06/03 11:59:38;;;;;;;1.80;0.75;;;;;;;-144.94;31.63;75430.91;5053615;28;20444;-79
2022/06/03 12:02:15;;;;;;;2.13;0.90;;;;;;;-144.94;31.63;75445.31;5053715;28;20083;-78
2022/06/03 12:04:55;;;;;;;2.97;1.20;;;;;;;-144.94;31.30;75404.13;5053316;28;20047;-79
2022/06/03 12:07:47;;;;;;;3.60;1.25;;;;;;;-144.94;31.06;75371.22;5053629;28;20116;-78
2022/06/03 12:10:22;;;;;;;3.58;1.08;;;;;;;-144.94;30.56;75305.34;5053379;28;20032;-78
2022/06/03 12:13:17;;;;;;;2.40;0.90;;;;;;;-144.94;30.54;75293.00;5053147;28;20033;-78
2022/06/03 12:15:49;;;;;;;1.83;0.80;;;;;;;-144.94;30.04;75276.53;5035641;28;20044;-77
2022/06/03 12:18:14;;;;;;;1.90;0.80;;;;;;;-144.94;29.80;75229.19;5053272;28;20387;-78
2022/06/03 12:20:48;;;;;;;2.30;1.10;;;;;;;-144.94;29.59;75286.81;5052330;28;20029;-77
2022/06/03 12:23:33;;;;;;;1.80;0.93;;;;;;;-144.94;29.52;75247.72;5053388;28;20395;-77
2022/06/03 12:25:59;;;;;;;2.67;1.00;;;;;;;-144.94;29.23;75255.94;5053110;28;20033;-78
2022/06/03 12:28:31;;;;;;;2.30;0.87;;;;;;;-144.94;29.59;75214.78;5053292;28;20029;-78
2022/06/03 12:31:14;;;;;;;2.17;0.93;;;;;;;-144.94;29.64;75223.03;5053434;28;20442;-78
2022/06/03 12:33:58;;;;;;;3.60;1.73;;;;;;;-144.94;29.97;75317.69;5053277;28;20064;-78
2022/06/03 12:36:39;;;;;;;2.22;0.93;;;;;;;-144.94;30.19;75313.59;5052953;28;20044;-78
2022/06/03 12:39:08;;;;;;;2.88;1.13;;;;;;;-144.94;29.65;75270.34;5053508;28;20090;-78
2022/06/03 12:41:45;;;;;;;0.98;0.60;;;;;;;-144.94;29.40;75223.03;5053037;28;20028;-77
2022/06/03 12:44:41;;;;;;;3.47;0.90;;;;;;;-144.94;28.92;75181.88;5052898;28;20029;-77
2022/06/03 12:47:35;;;;;;;2.17;1.00;;;;;;;-144.94;29.18;75171.56;5052870;28;20040;-78
2022/06/03 12:50:07;;;;;;;1.77;0.90;;;;;;;-144.94;28.73;75097.47;5046961;28;20167;-77